Time;durP1;ratioP1;P1;durP2;ratioP2;P2;SDS_P1;SDS_P2;PMS_P1;PMS_P2;Temp;Humidity;BMP_temperature;BMP_pressure;BME280_temperature;BME280_humidity;BME280_pressure;Samples;Min_cycle;Max_cycle;Signal;HPM_P1;HPM_P2
2023/06/08 00:01:52;;;;;;;2.70;2.30;;;18.20;56.00;;;20.13;43.57;97443.25;5066569;28;20063;-61
2023/06/08 00:04:22;;;;;;;3.13;2.70;;;18.10;55.90;;;20.10;43.36;97430.19;5063607;28;20056;-61
2023/06/08 00:06:52;;;;;;;2.60;2.40;;;18.10;56.10;;;20.05;43.54;97436.28;5061125;28;20504;-62
2023/06/08 00:09:20;;;;;;;3.60;2.55;;;18.10;56.30;;;20.05;43.40;97441.69;5062800;28;20056;-62
2023/06/08 00:11:48;;;;;;;3.53;2.88;;;18.10;56.10;;;20.08;43.61;97445.78;5063654;28;20044;-62
2023/06/08 00:14:17;;;;;;;2.88;2.58;;;18.20;55.70;;;20.09;43.43;97445.56;5063931;28;20416;-61
2023/06/08 00:16:47;;;;;;;2.97;2.70;;;18.30;55.50;;;20.09;43.47;97442.06;5060975;28;20045;-62
2023/06/08 00:19:16;;;;;;;3.83;2.63;;;18.20;55.50;;;20.08;43.24;97441.22;5061654;28;20408;-62
2023/06/08 00:21:48;;;;;;;4.07;2.60;;;18.30;55.30;;;20.08;43.54;97438.50;5064795;28;20045;-62
2023/06/08 00:24:19;;;;;;;3.40;2.90;;;18.30;55.40;;;20.05;43.54;97431.69;5064036;28;20103;-61
2023/06/08 00:26:46;;;;;;;4.78;3.15;;;18.20;55.40;;;20.04;43.40;97435.44;5061391;28;20045;-61
2023/06/08 00:29:14;;;;;;;4.28;2.90;;;18.20;55.20;;;20.02;43.63;97432.13;5061380;28;20049;-61
2023/06/08 00:31:41;;;;;;;3.03;2.67;;;18.20;55.20;;;19.99;43.40;97435.31;5063237;28;20108;-61
2023/06/08 00:34:09;;;;;;;4.32;3.05;;;18.20;55.20;;;19.97;43.51;97436.59;5059828;28;20044;-62
2023/06/08 00:36:37;;;;;;;3.30;3.00;;;18.10;55.30;;;19.94;43.41;97431.63;5059167;28;20048;-62
2023/06/08 00:39:05;;;;;;;3.72;2.92;;;18.10;55.50;;;19.88;43.82;97436.06;5066389;28;20060;-62
2023/06/08 00:41:32;;;;;;;4.18;3.13;;;18.00;56.20;;;19.82;43.95;97431.56;5060057;28;20048;-61
2023/06/08 00:44:06;;;;;;;3.10;2.80;;;17.90;56.40;;;19.80;43.81;97433.66;5060884;28;20041;-62
2023/06/08 00:46:35;;;;;;;3.30;2.92;;;17.90;56.50;;;19.73;43.86;97436.41;5061475;28;20052;-62
2023/06/08 00:49:11;;;;;;;3.30;3.00;;;17.70;56.80;;;19.68;44.17;97438.97;5062187;28;20060;-62
2023/06/08 00:51:41;;;;;;;4.00;3.30;;;17.70;57.00;;;19.63;44.15;97446.91;5062700;28;20057;-62
2023/06/08 00:54:12;;;;;;;3.40;3.10;;;17.60;57.10;;;19.60;44.20;97441.94;5062423;28;20071;-62
2023/06/08 00:56:41;;;;;;;3.67;3.25;;;17.60;57.20;;;19.56;44.33;97441.59;5050943;28;20504;-62
2023/06/08 00:59:11;;;;;;;4.90;3.13;;;17.50;57.30;;;19.54;44.34;97442.84;5060751;28;20112;-62
2023/06/08 01:01:40;;;;;;;3.55;3.25;;;17.50;57.30;;;19.50;44.36;97447.03;5042675;28;20519;-61
2023/06/08 01:04:14;;;;;;;3.22;2.88;;;17.50;57.40;;;19.47;44.52;97445.63;5060170;28;20060;-61
2023/06/08 01:06:48;;;;;;;4.38;3.40;;;17.40;57.60;;;19.41;44.50;97427.63;5050970;28;20060;-61
2023/06/08 01:09:48;;;;;;;4.00;3.60;;;17.50;58.20;;;19.38;44.63;97433.44;5050510;28;20060;-60
2023/06/08 01:12:44;;;;;;;3.92;3.08;;;17.40;58.30;;;19.33;44.61;97436.81;5059376;28;20045;-61
2023/06/08 01:15:42;;;;;;;3.45;3.10;;;17.30;59.00;;;19.26;44.76;97434.16;5062031;28;20057;-61
2023/06/08 01:18:17;;;;;;;4.10;3.70;;;17.30;59.60;;;19.26;44.89;97430.66;5035456;28;20049;-62
2023/06/08 01:21:07;;;;;;;4.88;3.13;;;17.20;58.90;;;19.19;45.14;97429.88;5039125;28;20046;-61
2023/06/08 01:24:19;;;;;;;3.63;3.33;;;17.10;59.90;;;19.11;45.21;97425.59;5060701;28;20052;-61
2023/06/08 01:26:49;;;;;;;3.78;3.47;;;17.10;60.20;;;19.15;45.36;97429.50;5039781;28;20052;-61
2023/06/08 01:29:21;;;;;;;3.40;3.10;;;17.10;59.10;;;19.14;45.31;97427.84;5063538;28;20041;-61
2023/06/08 01:31:49;;;;;;;3.40;3.10;;;17.20;59.00;;;19.13;45.26;97426.19;5051449;28;20057;-62
2023/06/08 01:34:18;;;;;;;4.65;3.17;;;17.20;58.80;;;19.11;45.31;97430.97;5058411;28;20404;-62
2023/06/08 01:37:20;;;;;;;3.67;3.38;;;17.10;59.00;;;19.07;45.47;97427.09;5049867;28;20072;-61
2023/06/08 01:39:52;;;;;;;3.75;3.28;;;17.10;59.50;;;19.07;45.33;97419.81;5040753;28;20065;-61
2023/06/08 01:42:20;;;;;;;3.10;2.80;;;17.10;60.10;;;19.04;45.62;97428.34;5055369;28;20048;-61
2023/06/08 01:45:07;;;;;;;3.63;3.13;;;17.10;59.30;;;19.00;45.71;97423.59;5045444;28;20055;-60
2023/06/08 01:47:52;;;;;;;4.07;3.05;;;17.00;59.80;;;18.95;45.76;97420.75;5059055;28;20044;-61
2023/06/08 01:50:21;;;;;;;4.47;3.45;;;17.00;60.50;;;18.94;45.90;97416.41;5038854;28;20045;-61
2023/06/08 01:52:49;;;;;;;3.95;3.55;;;16.90;59.70;;;18.91;45.94;97420.38;5061462;28;20044;-61
2023/06/08 01:55:19;;;;;;;4.25;3.28;;;16.90;59.90;;;18.87;46.01;97419.97;5062968;28;20044;-61
2023/06/08 01:57:47;;;;;;;11.07;3.70;;;16.90;60.10;;;18.85;46.11;97418.56;5049744;28;20049;-61
2023/06/08 02:00:18;;;;;;;4.05;3.10;;;16.90;60.20;;;18.85;46.04;97423.94;5057445;28;20044;-61
2023/06/08 02:02:46;;;;;;;5.53;3.05;;;16.90;60.00;;;18.87;46.13;97411.06;5051249;28;20044;-62
2023/06/08 02:05:15;;;;;;;3.83;3.42;;;17.00;59.90;;;18.87;46.16;97403.78;5057945;28;20051;-61
2023/06/08 02:07:43;;;;;;;3.30;3.00;;;17.00;59.70;;;18.85;46.15;97405.06;5060804;28;20534;-61
2023/06/08 02:10:12;;;;;;;6.40;3.42;;;16.90;59.90;;;18.81;46.10;97398.47;5061418;28;20037;-62
2023/06/08 02:12:40;;;;;;;3.80;3.30;;;16.90;60.10;;;18.82;46.10;97405.50;5042445;28;20063;-61
2023/06/08 02:15:08;;;;;;;4.15;3.40;;;16.90;59.90;;;18.80;46.24;97403.00;5057643;28;20045;-61
2023/06/08 02:17:36;;;;;;;3.88;3.47;;;16.80;60.00;;;18.75;46.52;97399.31;5059190;28;20052;-61
2023/06/08 02:20:06;;;;;;;3.92;3.47;;;16.80;60.60;;;18.72;46.52;97400.56;5063178;28;20041;-62
2023/06/08 02:22:39;;;;;;;4.93;3.97;;;16.80;60.80;;;18.72;46.46;97407.84;5059078;28;20051;-61
2023/06/08 02:25:11;;;;;;;4.65;3.95;;;16.80;60.60;;;18.70;46.41;97410.75;5057323;28;20370;-61
2023/06/08 02:27:39;;;;;;;3.97;3.30;;;16.80;60.30;;;18.69;46.53;97406.41;5066345;28;20505;-61
2023/06/08 02:30:09;;;;;;;6.05;4.20;;;16.80;60.50;;;18.65;46.89;97415.97;5061060;28;20040;-61
2023/06/08 02:32:41;;;;;;;4.78;4.32;;;16.70;61.10;;;18.62;47.03;97416.41;5042166;28;20045;-61
2023/06/08 02:35:10;;;;;;;5.93;3.80;;;16.60;61.70;;;18.58;47.04;97413.31;5057598;28;20096;-61
2023/06/08 02:37:42;;;;;;;5.28;4.72;;;16.60;62.40;;;18.55;47.16;97424.53;5064775;28;20145;-61
2023/06/08 02:40:11;;;;;;;5.80;4.40;;;16.50;62.30;;;18.54;47.27;97414.81;5057518;28;20056;-61
2023/06/08 02:42:40;;;;;;;4.47;4.07;;;16.50;62.80;;;18.51;47.53;97417.91;5059437;28;20044;-63
2023/06/08 02:45:10;;;;;;;5.38;4.35;;;16.50;62.80;;;18.48;47.61;97413.81;5060465;28;20392;-62
2023/06/08 02:47:39;;;;;;;6.47;4.68;;;16.50;63.40;;;18.41;47.84;97414.88;5058357;28;20044;-62
2023/06/08 02:50:07;;;;;;;5.47;4.65;;;16.40;63.80;;;18.37;47.89;97416.38;5058694;28;20051;-61
2023/06/08 02:52:35;;;;;;;5.18;4.65;;;16.40;63.40;;;18.36;48.01;97418.25;5058896;28;20444;-62
2023/06/08 02:55:03;;;;;;;5.18;4.43;;;16.30;64.20;;;18.32;48.15;97418.88;5060862;28;20044;-62
2023/06/08 02:57:32;;;;;;;5.25;4.75;;;16.30;64.60;;;18.27;48.34;97411.44;5059880;28;20416;-62
2023/06/08 03:00:07;;;;;;;6.10;5.10;;;16.20;64.80;;;18.23;48.58;97413.75;5057541;28;20041;-62
2023/06/08 03:02:50;;;;;;;5.32;4.80;;;16.20;65.30;;;18.21;48.45;97415.00;5043378;28;20532;-62
2023/06/08 03:05:20;;;;;;;5.22;4.72;;;16.10;65.50;;;18.19;48.75;97414.41;5057105;28;20048;-62
2023/06/08 03:07:48;;;;;;;5.72;5.05;;;16.20;65.90;;;18.15;48.92;97422.09;5059486;28;20045;-62
2023/06/08 03:10:16;;;;;;;7.05;5.78;;;16.10;66.30;;;18.13;49.16;97415.25;5060838;28;20036;-62
2023/06/08 03:12:44;;;;;;;6.40;5.72;;;16.10;66.70;;;18.08;49.12;97410.50;5063470;28;20044;-62
2023/06/08 03:15:11;;;;;;;6.53;5.53;;;16.00;66.80;;;18.06;49.22;97405.31;5060892;28;20414;-62
2023/06/08 03:17:42;;;;;;;6.57;5.88;;;16.00;66.50;;;18.05;49.22;97410.94;5062479;28;20056;-61
2023/06/08 03:20:11;;;;;;;7.53;5.55;;;16.00;66.60;;;18.01;49.50;97412.41;5064634;28;20041;-61
2023/06/08 03:22:45;;;;;;;7.57;6.80;;;15.90;67.20;;;17.98;49.54;97405.56;5062025;28;20049;-62
2023/06/08 03:25:16;;;;;;;7.60;6.65;;;15.90;67.20;;;17.98;49.71;97408.28;5060773;28;20519;-62
2023/06/08 03:27:45;;;;;;;7.00;6.25;;;16.00;67.10;;;17.96;49.81;97406.84;5062854;28;20516;-62
2023/06/08 03:30:14;;;;;;;7.88;6.97;;;16.00;67.90;;;17.97;49.82;97408.47;5065726;28;20037;-62
2023/06/08 03:32:48;;;;;;;7.68;6.20;;;16.00;67.90;;;17.94;49.95;97403.53;5061195;28;20429;-61
2023/06/08 03:35:20;;;;;;;7.75;6.28;;;15.90;68.30;;;17.91;49.96;97410.16;5058267;28;20049;-61
2023/06/08 03:37:56;;;;;;;6.75;6.10;;;15.90;68.30;;;17.92;50.07;97416.41;5060815;28;20531;-62
2023/06/08 03:40:24;;;;;;;8.32;6.10;;;15.90;67.90;;;17.93;50.09;97418.03;5060671;28;20044;-62
2023/06/08 03:42:51;;;;;;;7.05;6.32;;;15.90;67.70;;;17.93;50.22;97418.03;5063078;28;20055;-61
2023/06/08 03:45:23;;;;;;;6.68;5.97;;;16.00;67.80;;;17.92;50.26;97424.47;5047910;28;20037;-62
2023/06/08 03:47:54;;;;;;;6.90;6.03;;;16.00;67.80;;;17.95;50.02;97419.50;5060388;28;20044;-61
2023/06/08 03:50:23;;;;;;;6.50;5.72;;;16.00;67.50;;;17.95;50.15;97419.50;5060581;28;20045;-61
2023/06/08 03:52:51;;;;;;;7.55;6.13;;;16.00;67.60;;;17.97;50.29;97425.50;5063130;28;20052;-62
2023/06/08 03:55:19;;;;;;;7.28;6.40;;;16.20;67.30;;;18.00;50.17;97419.66;5064933;28;20040;-62
2023/06/08 03:57:47;;;;;;;7.40;6.65;;;16.20;67.00;;;18.03;50.35;97421.09;5037267;28;20057;-62
2023/06/08 04:00:15;;;;;;;8.60;7.18;;;16.30;67.20;;;18.06;50.43;97415.28;5065184;28;20363;-62
2023/06/08 04:02:43;;;;;;;8.93;8.02;;;16.30;67.30;;;18.08;50.51;97413.19;5063205;28;20060;-62
2023/06/08 04:05:18;;;;;;;8.35;6.53;;;16.30;67.60;;;18.12;50.47;97417.09;5059897;28;20052;-62
2023/06/08 04:07:47;;;;;;;8.43;7.40;;;16.30;67.70;;;18.13;50.55;97409.88;5063313;28;20041;-62
2023/06/08 04:10:15;;;;;;;8.15;7.30;;;16.40;67.90;;;18.12;50.62;97409.03;5065026;28;20052;-62
2023/06/08 04:12:43;;;;;;;8.52;7.22;;;16.30;67.90;;;18.13;50.71;97417.97;5063296;28;20075;-62
2023/06/08 04:15:11;;;;;;;9.32;6.63;;;16.30;68.20;;;18.13;50.77;97418.78;5060328;28;20041;-62
2023/06/08 04:17:41;;;;;;;7.43;6.60;;;16.30;68.30;;;18.13;51.09;97424.16;5058174;28;20057;-62
2023/06/08 04:20:12;;;;;;;8.93;7.28;;;16.30;68.60;;;18.14;51.18;97420.41;5047260;28;20518;-62
2023/06/08 04:22:40;;;;;;;9.00;7.43;;;16.20;69.20;;;18.13;51.35;97428.72;5045045;28;20059;-62
2023/06/08 04:25:08;;;;;;;8.90;7.50;;;16.30;69.80;;;18.12;51.54;97427.88;5059752;28;20055;-62
2023/06/08 04:27:37;;;;;;;9.48;7.53;;;16.30;70.20;;;18.14;51.74;97428.50;5073391;28;20061;-62
2023/06/08 04:30:06;;;;;;;9.32;8.30;;;16.30;70.60;;;18.13;51.76;97431.44;5063535;28;20040;-62
2023/06/08 04:32:35;;;;;;;9.25;6.60;;;16.20;70.80;;;18.14;51.87;97428.50;5062719;28;20055;-62
2023/06/08 04:35:04;;;;;;;8.05;7.18;;;16.20;70.90;;;18.15;52.02;97430.16;5059868;28;20041;-62
2023/06/08 04:37:35;;;;;;;10.82;7.45;;;16.30;71.20;;;18.18;51.95;97431.59;5059134;28;20067;-61
2023/06/08 04:40:04;;;;;;;7.93;7.03;;;16.40;70.90;;;18.18;51.95;97434.28;5063574;28;20048;-62
2023/06/08 04:42:33;;;;;;;8.02;6.55;;;16.40;70.70;;;18.20;51.91;97433.03;5062728;28;20211;-62
2023/06/08 04:45:03;;;;;;;7.25;6.55;;;16.40;70.40;;;18.18;52.09;97440.50;5052423;28;20041;-62
2023/06/08 04:47:33;;;;;;;10.82;7.47;;;16.40;71.20;;;18.22;52.42;97440.91;5039570;28;20061;-62
2023/06/08 04:50:08;;;;;;;9.80;7.25;;;16.40;71.10;;;18.23;52.25;97440.69;5062569;28;20044;-61
2023/06/08 04:52:45;;;;;;;9.90;7.10;;;16.50;71.10;;;18.29;52.22;97447.09;5046966;28;20052;-62
2023/06/08 04:55:13;;;;;;;8.85;7.15;;;16.60;70.70;;;18.34;52.31;97451.81;5059162;28;20048;-62
2023/06/08 04:57:42;;;;;;;8.23;7.35;;;16.70;70.60;;;18.39;52.34;97452.00;5043169;28;20060;-62
2023/06/08 05:00:12;;;;;;;9.85;7.53;;;16.70;70.50;;;18.42;52.20;97449.72;5062996;28;20045;-62
2023/06/08 05:02:40;;;;;;;7.80;6.97;;;16.80;70.10;;;18.47;52.17;97457.13;5063968;28;20052;-62
2023/06/08 05:05:08;;;;;;;10.57;8.05;;;16.90;69.70;;;18.53;52.17;97453.56;5060426;28;20040;-62
2023/06/08 05:07:36;;;;;;;8.68;7.78;;;17.00;69.30;;;18.59;51.96;97451.88;5058636;28;20045;-62
2023/06/08 05:10:04;;;;;;;9.75;7.85;;;17.10;69.00;;;18.63;52.11;97450.41;5062367;28;20080;-62
2023/06/08 05:12:33;;;;;;;7.95;7.15;;;17.10;68.90;;;18.69;52.25;97450.38;5064402;28;20044;-62
2023/06/08 05:15:02;;;;;;;7.57;6.70;;;17.20;68.90;;;18.78;52.04;97450.09;5059499;28;20404;-62
2023/06/08 05:17:30;;;;;;;7.40;6.50;;;17.30;68.80;;;18.84;52.16;97442.00;5058983;28;20051;-62
2023/06/08 05:19:58;;;;;;;10.20;7.15;;;17.40;68.50;;;18.92;52.02;97440.91;5062928;28;20420;-62
2023/06/08 05:22:25;;;;;;;7.60;6.80;;;17.50;68.40;;;19.02;52.13;97446.63;5063407;28;20040;-62
2023/06/08 05:24:53;;;;;;;11.15;7.60;;;17.60;68.20;;;19.08;51.99;97443.06;5061572;28;20102;-61
2023/06/08 05:27:21;;;;;;;8.48;7.32;;;17.70;68.00;;;19.13;52.17;97441.56;5059147;28;20052;-62
2023/06/08 05:29:48;;;;;;;8.65;6.65;;;17.80;67.90;;;19.22;52.27;97446.47;5061234;28;20041;-61
2023/06/08 05:32:16;;;;;;;7.65;6.85;;;17.90;68.10;;;19.31;52.06;97438.91;5063435;28;20040;-61
2023/06/08 05:34:43;;;;;;;8.23;7.45;;;18.00;67.60;;;19.41;51.68;97435.72;5061603;28;20055;-61
2023/06/08 05:37:11;;;;;;;7.22;6.30;;;18.10;67.20;;;19.46;51.80;97439.41;5059076;28;20044;-62
2023/06/08 05:39:39;;;;;;;12.60;7.60;;;18.10;67.10;;;19.56;51.81;97435.34;5059992;28;20493;-61
2023/06/08 05:42:06;;;;;;;8.50;7.55;;;18.20;67.30;;;19.62;51.95;97435.28;5059990;28;20412;-62
2023/06/08 05:44:34;;;;;;;8.65;7.82;;;18.30;67.40;;;19.70;51.71;97430.59;5058172;28;20045;-61
2023/06/08 05:47:02;;;;;;;8.57;7.03;;;18.40;67.00;;;19.78;51.70;97430.38;5062294;28;20052;-61
2023/06/08 05:49:30;;;;;;;8.05;6.95;;;18.50;66.80;;;19.83;51.35;97423.25;5063049;28;20051;-62
2023/06/08 05:51:57;;;;;;;10.40;6.65;;;18.50;66.30;;;19.86;51.59;97416.56;5060671;28;20500;-62
2023/06/08 05:54:25;;;;;;;8.10;6.43;;;18.60;66.30;;;19.92;51.41;97429.16;5065813;28;20416;-62
2023/06/08 05:56:53;;;;;;;7.70;6.90;;;18.70;65.90;;;19.96;51.01;97426.81;5061087;28;20442;-62
2023/06/08 05:59:20;;;;;;;6.68;6.00;;;18.70;65.70;;;20.01;51.03;97419.69;5058389;28;20440;-62
2023/06/08 06:01:48;;;;;;;8.85;6.63;;;18.70;65.40;;;20.08;50.62;97418.78;5060284;28;20416;-62
2023/06/08 06:04:16;;;;;;;7.40;6.28;;;18.70;65.20;;;20.13;50.55;97416.22;5063265;28;20063;-62
2023/06/08 06:07:06;;;;;;;7.70;6.32;;;18.70;65.00;;;20.17;50.41;97403.91;5059644;28;20052;-62
2023/06/08 06:09:34;;;;;;;7.65;5.95;;;18.70;64.90;;;20.17;50.29;97399.31;5057905;28;20041;-62
2023/06/08 06:12:02;;;;;;;8.15;7.05;;;18.70;64.70;;;20.21;50.60;97396.97;5062142;28;20167;-62
2023/06/08 06:14:38;;;;;;;7.28;6.35;;;18.80;64.70;;;20.26;50.47;97397.13;5062643;28;20416;-62
2023/06/08 06:17:07;;;;;;;7.75;6.78;;;18.80;64.70;;;20.33;50.33;97394.31;5058167;28;20036;-61
2023/06/08 06:19:37;;;;;;;7.47;6.15;;;18.90;65.80;;;20.37;50.38;97404.44;5058368;28;20424;-61
2023/06/08 06:22:07;;;;;;;7.35;6.32;;;18.90;65.00;;;20.43;49.97;97408.94;5062251;28;20067;-61
2023/06/08 06:24:35;;;;;;;7.43;6.18;;;18.90;64.60;;;20.45;49.63;97423.06;5062663;28;20096;-62
2023/06/08 06:27:05;;;;;;;7.93;7.13;;;18.90;64.40;;;20.41;49.61;97438.09;5058479;28;20041;-62
2023/06/08 06:29:33;;;;;;;7.30;6.30;;;18.80;63.80;;;20.38;49.70;97443.94;5059356;28;20041;-62
2023/06/08 06:32:01;;;;;;;7.57;6.25;;;18.80;64.50;;;20.40;49.80;97430.22;5061605;28;20524;-61
2023/06/08 06:34:29;;;;;;;8.50;6.25;;;18.70;64.70;;;20.43;49.66;97419.75;5061740;28;20044;-62
2023/06/08 06:36:57;;;;;;;6.32;5.68;;;18.80;64.70;;;20.49;50.04;97425.28;5057656;28;20049;-62
2023/06/08 06:39:25;;;;;;;6.75;6.05;;;18.80;64.90;;;20.53;49.59;97431.88;5059315;28;20416;-62
2023/06/08 06:41:52;;;;;;;6.80;6.10;;;19.00;63.90;;;20.54;49.32;97431.66;5059148;28;20048;-62
2023/06/08 06:44:23;;;;;;;5.82;5.22;;;18.90;63.70;;;20.50;49.20;97449.41;5057839;28;20381;-62
2023/06/08 06:46:50;;;;;;;5.70;5.10;;;18.90;63.30;;;20.49;48.73;97444.22;5066628;28;20047;-60
2023/06/08 06:49:18;;;;;;;6.50;5.53;;;18.80;62.80;;;20.50;48.95;97441.28;5060851;28;20041;-63
2023/06/08 06:51:45;;;;;;;6.45;5.65;;;18.90;62.70;;;20.50;48.95;97446.69;5062309;28;20041;-61
2023/06/08 06:54:13;;;;;;;6.40;5.80;;;18.90;62.60;;;20.52;49.42;97451.88;5060725;28;20053;-60
2023/06/08 06:56:41;;;;;;;7.65;6.90;;;19.00;62.90;;;20.51;49.19;97459.16;5061639;28;20045;-61
2023/06/08 06:59:09;;;;;;;7.55;6.47;;;19.00;62.80;;;20.48;49.14;97458.81;5064649;28;20048;-61
2023/06/08 07:01:36;;;;;;;8.82;7.07;;;19.10;62.60;;;20.46;49.06;97457.13;5065226;28;20047;-61
2023/06/08 07:04:05;;;;;;;8.52;6.47;;;19.00;62.30;;;20.49;48.65;97457.72;5062546;28;20500;-61
2023/06/08 07:06:33;;;;;;;15.82;8.82;;;19.00;62.20;;;20.48;48.37;97464.22;5061387;28;20044;-61
2023/06/08 07:09:01;;;;;;;8.93;7.00;;;18.90;62.80;;;20.42;48.57;97457.84;5063545;28;20045;-61
2023/06/08 07:11:28;;;;;;;7.80;7.00;;;18.80;62.30;;;20.41;48.54;97469.69;5064158;28;20040;-61
2023/06/08 07:13:57;;;;;;;8.38;7.47;;;18.80;62.40;;;20.39;48.76;97469.91;5064205;28;20055;-60
2023/06/08 07:16:24;;;;;;;7.22;6.43;;;18.80;62.80;;;20.42;48.74;97472.16;5060880;28;20049;-61
2023/06/08 07:18:54;;;;;;;7.65;6.40;;;18.90;62.40;;;20.46;49.32;97470.66;5062083;28;20512;-61
2023/06/08 07:21:23;;;;;;;7.57;6.47;;;19.00;62.80;;;20.46;49.71;97475.25;5061762;28;20057;-61
2023/06/08 07:23:59;;;;;;;7.78;6.97;;;19.10;63.50;;;20.48;50.04;97477.72;5061790;28;20082;-61
2023/06/08 07:26:47;;;;;;;8.40;7.05;;;19.20;64.00;;;20.54;49.72;97476.81;5064763;28;20036;-61
2023/06/08 07:29:15;;;;;;;7.30;6.60;;;19.20;63.30;;;20.56;49.24;97480.09;5061193;28;20523;-61
2023/06/08 07:31:42;;;;;;;7.22;6.47;;;19.20;61.50;;;20.51;48.58;97478.09;5059997;28;20045;-61
2023/06/08 07:34:10;;;;;;;7.43;6.65;;;19.20;61.00;;;20.50;48.91;97479.13;5064240;28;20052;-62
2023/06/08 07:36:38;;;;;;;7.63;6.57;;;19.20;61.50;;;20.56;49.63;97472.00;5062974;28;20056;-61
2023/06/08 07:39:06;;;;;;;9.70;7.03;;;19.30;62.40;;;20.59;49.74;97480.50;5062401;28;20045;-61
2023/06/08 07:41:34;;;;;;;7.38;6.60;;;19.40;62.90;;;20.55;50.44;97484.69;5052311;28;20051;-62
2023/06/08 07:44:02;;;;;;;7.70;6.93;;;19.40;63.30;;;20.58;50.49;97491.53;5053947;28;20052;-62
2023/06/08 07:46:31;;;;;;;7.20;6.40;;;19.40;63.30;;;20.64;49.97;97491.44;5052427;28;20048;-61
2023/06/08 07:48:58;;;;;;;7.82;6.43;;;19.50;63.10;;;20.78;49.65;97491.25;5059819;28;20361;-61
2023/06/08 07:51:26;;;;;;;9.07;6.88;;;19.60;62.60;;;20.76;50.35;97488.81;5060789;28;20048;-61
2023/06/08 07:53:54;;;;;;;8.32;6.53;;;19.60;62.80;;;20.86;49.31;97493.66;5060638;28;20136;-61
2023/06/08 07:56:21;;;;;;;8.80;7.35;;;19.70;62.00;;;20.91;48.75;97496.47;5064140;28;20051;-61
2023/06/08 07:58:49;;;;;;;7.97;6.63;;;19.70;60.50;;;20.95;48.46;97492.25;5063631;28;20500;-61
2023/06/08 08:01:17;;;;;;;7.28;6.57;;;19.70;60.20;;;20.96;48.18;97491.22;5061095;28;20071;-61
2023/06/08 08:03:44;;;;;;;7.97;7.18;;;19.80;59.40;;;20.97;47.64;97482.03;5060785;28;20446;-62
2023/06/08 08:06:13;;;;;;;7.55;6.68;;;19.80;58.60;;;21.01;47.27;97483.22;5062808;28;20056;-60
2023/06/08 08:08:41;;;;;;;8.10;7.05;;;19.80;58.50;;;21.11;47.02;97481.81;5062875;28;20044;-64
2023/06/08 08:11:09;;;;;;;7.93;6.70;;;19.90;58.50;;;21.18;47.08;97477.13;5062827;28;20044;-60
2023/06/08 08:13:37;;;;;;;8.65;6.75;;;20.00;58.30;;;21.27;47.08;97481.16;5064330;28;20044;-60
2023/06/08 08:16:05;;;;;;;7.13;6.28;;;20.10;58.70;;;21.32;47.27;97481.25;5063113;28;20423;-60
2023/06/08 08:18:33;;;;;;;9.43;6.97;;;20.20;57.90;;;21.35;47.36;97480.78;5061758;28;20041;-60
2023/06/08 08:21:00;;;;;;;8.05;6.10;;;20.20;58.40;;;21.41;47.11;97479.84;5062178;28;20049;-60
2023/06/08 08:23:28;;;;;;;8.25;6.72;;;20.30;58.50;;;21.49;46.45;97470.59;5064827;28;20040;-60
2023/06/08 08:25:55;;;;;;;9.35;5.55;;;20.30;56.80;;;21.52;46.36;97478.25;5064389;28;20377;-60
2023/06/08 08:28:23;;;;;;;6.03;5.15;;;20.40;56.70;;;21.56;45.52;97476.72;5053514;28;20036;-60
2023/06/08 08:30:51;;;;;;;8.30;6.50;;;20.50;55.30;;;21.39;45.48;97471.13;5061061;28;20041;-60
2023/06/08 08:33:18;;;;;;;7.10;6.40;;;20.50;55.00;;;21.45;45.42;97466.69;5064100;28;20036;-60
2023/06/08 08:35:46;;;;;;;6.65;5.72;;;20.50;55.90;;;21.61;45.15;97468.69;5064297;28;20055;-61
2023/06/08 08:38:13;;;;;;;6.20;5.70;;;20.60;55.10;;;21.55;45.34;97475.06;5065003;28;20044;-59
2023/06/08 08:40:42;;;;;;;6.25;5.70;;;20.60;54.60;;;21.69;45.35;97480.22;5064742;28;20048;-60
2023/06/08 08:43:12;;;;;;;6.32;5.65;;;20.70;55.10;;;21.77;45.37;97477.16;5062492;28;20048;-60
2023/06/08 08:45:42;;;;;;;7.10;5.97;;;20.70;55.10;;;21.80;45.32;97474.81;5059398;28;20499;-60
2023/06/08 08:48:13;;;;;;;9.05;4.95;;;20.80;54.80;;;21.89;45.58;97479.84;5061434;28;20045;-60
2023/06/08 08:50:41;;;;;;;8.70;6.18;;;20.90;55.10;;;21.96;45.09;97481.38;5047270;28;20052;-60
2023/06/08 08:53:10;;;;;;;6.20;5.60;;;21.00;54.40;;;22.08;45.19;97483.25;5062461;28;20041;-60
2023/06/08 08:55:41;;;;;;;6.45;5.85;;;21.10;54.50;;;22.10;45.08;97481.97;5059253;28;20056;-60
2023/06/08 08:58:10;;;;;;;6.40;5.75;;;21.20;54.00;;;22.20;44.27;97475.94;5062284;28;20079;-60
2023/06/08 09:00:38;;;;;;;5.63;5.10;;;21.30;53.70;;;22.17;43.94;97474.50;5046675;28;20052;-60
2023/06/08 09:03:06;;;;;;;5.85;5.15;;;21.30;52.90;;;22.26;44.57;97480.41;5063087;28;20040;-62
2023/06/08 09:05:34;;;;;;;6.32;5.40;;;21.40;53.50;;;22.27;43.89;97470.38;5058976;28;20048;-62
2023/06/08 09:08:02;;;;;;;5.75;5.15;;;21.30;53.10;;;22.24;44.08;97474.38;5060798;28;20492;-61
2023/06/08 09:10:30;;;;;;;7.18;5.10;;;21.40;52.50;;;22.26;44.19;97468.75;5064232;28;20047;-61
2023/06/08 09:12:57;;;;;;;5.97;4.93;;;21.40;52.90;;;22.38;44.37;97467.63;5063276;28;20049;-61
2023/06/08 09:15:27;;;;;;;5.85;5.25;;;21.40;53.30;;;22.45;43.66;97464.78;5058710;28;20036;-61
2023/06/08 09:17:57;;;;;;;5.50;5.00;;;21.60;52.20;;;22.37;43.49;97459.72;5060791;28;20068;-61
2023/06/08 09:20:33;;;;;;;5.32;4.50;;;21.70;52.10;;;22.53;43.68;97460.88;5063790;28;20040;-61
2023/06/08 09:23:20;;;;;;;5.07;4.57;;;21.80;52.30;;;22.65;43.62;97450.78;5063900;28;20055;-62
2023/06/08 09:25:48;;;;;;;7.15;4.90;;;21.90;51.70;;;22.79;42.57;97456.72;5054076;28;20362;-63
2023/06/08 09:28:25;;;;;;;5.47;4.97;;;21.90;51.10;;;22.78;42.49;97450.47;5060041;28;20041;-63
2023/06/08 09:31:00;;;;;;;4.82;4.32;;;22.00;49.20;;;22.75;41.26;97455.56;5063152;28;20064;-63
2023/06/08 09:33:29;;;;;;;5.32;4.25;;;22.10;48.10;;;22.82;40.47;97448.09;5052126;28;20045;-63
2023/06/08 09:35:57;;;;;;;5.80;5.10;;;22.10;47.60;;;22.99;41.48;97437.25;5059483;28;20052;-63
2023/06/08 09:38:27;;;;;;;7.00;4.80;;;22.20;49.40;;;23.09;41.92;97444.75;5062966;28;20071;-63
2023/06/08 09:41:21;;;;;;;5.75;5.15;;;22.30;49.80;;;23.13;41.50;97441.31;5055242;28;20045;-63
2023/06/08 09:43:51;;;;;;;5.05;4.60;;;22.40;48.80;;;23.27;41.79;97444.53;5053577;28;20049;-63
2023/06/08 09:46:51;;;;;;;7.05;5.50;;;22.50;49.70;;;23.16;41.40;97440.00;5059768;28;20100;-63
2023/06/08 09:49:19;;;;;;;6.05;5.25;;;22.50;48.00;;;23.30;41.24;97440.47;5026941;28;20057;-62
2023/06/08 09:51:53;;;;;;;5.15;4.65;;;22.50;49.00;;;23.37;40.17;97438.44;5059912;28;20500;-62
2023/06/08 09:54:28;;;;;;;5.18;4.63;;;22.70;46.10;;;23.46;39.21;97427.94;5062928;28;20056;-62
2023/06/08 09:56:58;;;;;;;6.80;5.75;;;22.80;45.90;;;23.63;40.03;97433.34;5045155;28;20045;-62
2023/06/08 09:59:38;;;;;;;6.03;5.43;;;22.90;47.10;;;23.78;40.69;97430.88;5060167;28;20053;-62
2023/06/08 10:02:49;;;;;;;5.13;4.68;;;23.00;47.90;;;23.89;39.94;97416.34;5059593;28;20064;-62
2023/06/08 10:05:22;;;;;;;5.63;5.07;;;23.10;46.50;;;24.09;39.85;97414.97;5013677;28;20053;-63
2023/06/08 10:07:52;;;;;;;5.53;5.03;;;23.20;46.70;;;24.17;39.32;97411.78;5058361;28;20049;-62
2023/06/08 10:10:24;;;;;;;6.53;5.65;;;23.40;46.60;;;24.28;40.01;97418.19;5061680;28;20048;-62
2023/06/08 10:12:52;;;;;;;8.80;5.72;;;23.40;47.40;;;24.32;39.61;97414.69;5063260;28;20044;-63
2023/06/08 10:15:21;;;;;;;8.65;5.25;;;23.50;47.40;;;24.42;39.66;97403.09;5059849;28;20095;-63
2023/06/08 10:17:50;;;;;;;5.55;5.05;;;23.50;47.10;;;24.51;39.47;97401.59;5057870;28;20045;-62
2023/06/08 10:20:20;;;;;;;5.85;4.68;;;23.60;46.80;;;24.58;38.67;97403.28;5059390;28;20045;-63
2023/06/08 10:22:48;;;;;;;5.75;5.20;;;23.70;45.60;;;24.59;38.20;97404.94;5063322;28;20051;-62
2023/06/08 10:25:18;;;;;;;6.53;5.47;;;23.80;44.10;;;24.63;37.50;97406.88;5060367;28;20052;-63
2023/06/08 10:27:50;;;;;;;5.85;5.30;;;23.70;43.80;;;24.65;37.43;97396.53;5038378;28;20057;-63
2023/06/08 10:30:31;;;;;;;5.70;4.38;;;23.80;43.60;;;24.68;37.90;97401.47;5057725;28;20037;-63
2023/06/08 10:33:20;;;;;;;5.75;5.25;;;23.80;43.50;;;24.66;37.46;97389.19;5062374;28;20068;-63